sensor_id;sensor_type;location;lat;lon;timestamp;pressure;altitude;pressure_sealevel;temperature;humidity
76762;BME280;65705;51.032;13.790;2023-03-11T00:02:17;97893.47;;;5.23;69.75
76762;BME280;65705;51.032;13.790;2023-03-11T00:04:43;97898.34;;;5.26;69.85
76762;BME280;65705;51.032;13.790;2023-03-11T00:07:10;97907.38;;;5.16;67.19
76762;BME280;65705;51.032;13.790;2023-03-11T00:09:36;97892.03;;;4.92;67.69
76762;BME280;65705;51.032;13.790;2023-03-11T00:12:02;97915.56;;;4.76;69.46
76762;BME280;65705;51.032;13.790;2023-03-11T00:14:28;97914.03;;;4.67;69.61
76762;BME280;65705;51.032;13.790;2023-03-11T00:16:54;97923.22;;;4.55;70.69
76762;BME280;65705;51.032;13.790;2023-03-11T00:19:20;97921.06;;;4.58;71.73
76762;BME280;65705;51.032;13.790;2023-03-11T00:21:46;97919.75;;;4.62;71.40
76762;BME280;65705;51.032;13.790;2023-03-11T00:24:12;97936.31;;;4.61;71.96
76762;BME280;65705;51.032;13.790;2023-03-11T00:26:38;97919.63;;;4.56;70.74
76762;BME280;65705;51.032;13.790;2023-03-11T00:29:04;97911.06;;;4.55;69.39
76762;BME280;65705;51.032;13.790;2023-03-11T00:31:30;97917.91;;;4.48;71.50
76762;BME280;65705;51.032;13.790;2023-03-11T00:33:56;97932.78;;;4.54;71.38
76762;BME280;65705;51.032;13.790;2023-03-11T00:36:27;97938.06;;;4.46;71.21
76762;BME280;65705;51.032;13.790;2023-03-11T00:38:53;97933.72;;;4.39;72.03
76762;BME280;65705;51.032;13.790;2023-03-11T00:41:19;97940.81;;;4.22;72.37
76762;BME280;65705;51.032;13.790;2023-03-11T00:43:45;97930.19;;;4.09;72.39
76762;BME280;65705;51.032;13.790;2023-03-11T00:46:11;97937.22;;;4.00;73.44
76762;BME280;65705;51.032;13.790;2023-03-11T00:48:37;97948.50;;;3.85;73.95
76762;BME280;65705;51.032;13.790;2023-03-11T00:51:03;97956.28;;;3.85;74.34
76762;BME280;65705;51.032;13.790;2023-03-11T00:53:28;97970.00;;;3.93;74.43
76762;BME280;65705;51.032;13.790;2023-03-11T00:55:54;97973.50;;;3.70;73.94
76762;BME280;65705;51.032;13.790;2023-03-11T00:58:20;97977.72;;;3.71;74.40
76762;BME280;65705;51.032;13.790;2023-03-11T01:00:53;98003.03;;;3.61;75.37
76762;BME280;65705;51.032;13.790;2023-03-11T01:03:20;97997.19;;;3.67;75.51
76762;BME280;65705;51.032;13.790;2023-03-11T01:05:46;97999.00;;;3.58;74.98
76762;BME280;65705;51.032;13.790;2023-03-11T01:08:11;98005.31;;;3.64;75.32
76762;BME280;65705;51.032;13.790;2023-03-11T01:10:37;98000.47;;;3.53;75.79
76762;BME280;65705;51.032;13.790;2023-03-11T01:13:03;98027.88;;;3.39;76.01
76762;BME280;65705;51.032;13.790;2023-03-11T01:15:34;98023.03;;;3.28;76.59
76762;BME280;65705;51.032;13.790;2023-03-11T01:18:01;98029.38;;;3.01;77.03
76762;BME280;65705;51.032;13.790;2023-03-11T01:20:27;98028.72;;;2.83;77.93
76762;BME280;65705;51.032;13.790;2023-03-11T01:22:52;98024.53;;;2.90;77.04
76762;BME280;65705;51.032;13.790;2023-03-11T01:25:20;98026.13;;;2.99;76.26
76762;BME280;65705;51.032;13.790;2023-03-11T01:27:46;98046.72;;;3.09;75.98
76762;BME280;65705;51.032;13.790;2023-03-11T01:30:16;98020.47;;;3.12;74.90
76762;BME280;65705;51.032;13.790;2023-03-11T01:32:42;98051.25;;;3.15;74.76
76762;BME280;65705;51.032;13.790;2023-03-11T01:35:13;98060.47;;;3.09;75.07
76762;BME280;65705;51.032;13.790;2023-03-11T01:37:39;98064.38;;;3.13;74.98
76762;BME280;65705;51.032;13.790;2023-03-11T01:40:07;98077.16;;;3.07;73.80
76762;BME280;65705;51.032;13.790;2023-03-11T01:42:33;98068.06;;;3.03;74.04
76762;BME280;65705;51.032;13.790;2023-03-11T01:44:59;98063.06;;;3.09;73.87
76762;BME280;65705;51.032;13.790;2023-03-11T01:47:33;98067.75;;;2.98;73.34
76762;BME280;65705;51.032;13.790;2023-03-11T01:50:00;98082.00;;;3.02;73.43
76762;BME280;65705;51.032;13.790;2023-03-11T01:52:27;98078.13;;;2.98;73.02
76762;BME280;65705;51.032;13.790;2023-03-11T01:54:54;98073.59;;;2.92;73.78
76762;BME280;65705;51.032;13.790;2023-03-11T01:57:20;98105.00;;;2.97;73.34
76762;BME280;65705;51.032;13.790;2023-03-11T01:59:51;98107.75;;;2.95;73.56
76762;BME280;65705;51.032;13.790;2023-03-11T02:02:24;98103.53;;;2.86;73.70
76762;BME280;65705;51.032;13.790;2023-03-11T02:04:53;98100.91;;;2.78;73.59
76762;BME280;65705;51.032;13.790;2023-03-11T02:07:22;98117.28;;;2.79;73.02
76762;BME280;65705;51.032;13.790;2023-03-11T02:09:48;98113.72;;;2.80;73.27
76762;BME280;65705;51.032;13.790;2023-03-11T02:12:14;98107.25;;;2.76;73.49
76762;BME280;65705;51.032;13.790;2023-03-11T02:14:59;98117.13;;;2.80;73.59
76762;BME280;65705;51.032;13.790;2023-03-11T02:17:26;98116.66;;;2.85;72.84
76762;BME280;65705;51.032;13.790;2023-03-11T02:20:15;98089.25;;;2.74;73.45
76762;BME280;65705;51.032;13.790;2023-03-11T02:22:43;98134.59;;;2.70;73.34
76762;BME280;65705;51.032;13.790;2023-03-11T02:25:38;98133.09;;;2.68;73.55
76762;BME280;65705;51.032;13.790;2023-03-11T02:28:10;98178.44;;;2.72;73.32
76762;BME280;65705;51.032;13.790;2023-03-11T02:30:39;98152.56;;;2.80;73.74
76762;BME280;65705;51.032;13.790;2023-03-11T02:33:05;98156.13;;;2.79;73.20
76762;BME280;65705;51.032;13.790;2023-03-11T02:35:31;98166.38;;;2.88;73.00
76762;BME280;65705;51.032;13.790;2023-03-11T02:37:58;98156.59;;;2.74;73.52
76762;BME280;65705;51.032;13.790;2023-03-11T02:40:50;98175.13;;;2.54;74.31
76762;BME280;65705;51.032;13.790;2023-03-11T02:43:23;98198.28;;;2.55;73.93
76762;BME280;65705;51.032;13.790;2023-03-11T02:45:51;98184.19;;;2.50;74.60
76762;BME280;65705;51.032;13.790;2023-03-11T02:48:19;98192.41;;;2.45;74.53
76762;BME280;65705;51.032;13.790;2023-03-11T02:50:46;98180.78;;;2.49;74.41
76762;BME280;65705;51.032;13.790;2023-03-11T02:53:13;98214.13;;;2.52;74.02
76762;BME280;65705;51.032;13.790;2023-03-11T02:55:39;98212.38;;;2.53;74.12
76762;BME280;65705;51.032;13.790;2023-03-11T02:58:06;98230.63;;;2.51;74.08
76762;BME280;65705;51.032;13.790;2023-03-11T03:00:31;98220.22;;;2.43;74.37
76762;BME280;65705;51.032;13.790;2023-03-11T03:03:03;98232.84;;;2.46;74.82
76762;BME280;65705;51.032;13.790;2023-03-11T03:05:29;98240.47;;;2.48;74.76
76762;BME280;65705;51.032;13.790;2023-03-11T03:07:56;98244.19;;;2.45;75.13
76762;BME280;65705;51.032;13.790;2023-03-11T03:10:22;98260.63;;;2.36;76.08
76762;BME280;65705;51.032;13.790;2023-03-11T03:12:48;98253.72;;;2.19;76.73
76762;BME280;65705;51.032;13.790;2023-03-11T03:15:14;98271.72;;;2.03;77.91
76762;BME280;65705;51.032;13.790;2023-03-11T03:17:41;98279.78;;;2.00;78.30
76762;BME280;65705;51.032;13.790;2023-03-11T03:20:07;98293.38;;;2.02;79.60
76762;BME280;65705;51.032;13.790;2023-03-11T03:22:41;98298.06;;;1.98;79.27
76762;BME280;65705;51.032;13.790;2023-03-11T03:25:09;98327.97;;;2.01;78.63
76762;BME280;65705;51.032;13.790;2023-03-11T03:27:36;98335.81;;;1.74;79.37
76762;BME280;65705;51.032;13.790;2023-03-11T03:30:05;98346.59;;;1.69;80.23
76762;BME280;65705;51.032;13.790;2023-03-11T03:32:31;98343.94;;;1.61;81.41
76762;BME280;65705;51.032;13.790;2023-03-11T03:34:57;98351.53;;;1.63;82.02
76762;BME280;65705;51.032;13.790;2023-03-11T03:37:33;98371.44;;;1.53;82.15
76762;BME280;65705;51.032;13.790;2023-03-11T03:39:59;98375.94;;;1.51;81.28
76762;BME280;65705;51.032;13.790;2023-03-11T03:42:26;98361.97;;;1.44;83.91
76762;BME280;65705;51.032;13.790;2023-03-11T03:44:52;98379.38;;;1.42;83.10
76762;BME280;65705;51.032;13.790;2023-03-11T03:47:18;98402.00;;;1.40;83.17
76762;BME280;65705;51.032;13.790;2023-03-11T03:49:45;98390.41;;;1.44;82.41
76762;BME280;65705;51.032;13.790;2023-03-11T03:52:12;98408.78;;;1.41;82.52
76762;BME280;65705;51.032;13.790;2023-03-11T03:54:38;98427.78;;;1.49;82.06
76762;BME280;65705;51.032;13.790;2023-03-11T03:57:04;98464.97;;;1.39;81.62
76762;BME280;65705;51.032;13.790;2023-03-11T03:59:33;98441.31;;;1.34;82.11
76762;BME280;65705;51.032;13.790;2023-03-11T04:01:59;98446.88;;;1.39;83.14
76762;BME280;65705;51.032;13.790;2023-03-11T04:04:27;98526.06;;;1.40;81.62
76762;BME280;65705;51.032;13.790;2023-03-11T04:06:55;98503.19;;;1.35;82.11
76762;BME280;65705;51.032;13.790;2023-03-11T04:09:20;98464.97;;;1.39;83.36
76762;BME280;65705;51.032;13.790;2023-03-11T04:11:46;98474.69;;;1.18;83.91
76762;BME280;65705;51.032;13.790;2023-03-11T04:14:14;98480.53;;;1.20;84.62
76762;BME280;65705;51.032;13.790;2023-03-11T04:16:48;98485.97;;;1.17;84.51
76762;BME280;65705;51.032;13.790;2023-03-11T04:19:14;98552.72;;;1.12;84.33
76762;BME280;65705;51.032;13.790;2023-03-11T04:21:40;98501.22;;;1.00;84.99
76762;BME280;65705;51.032;13.790;2023-03-11T04:24:05;98519.44;;;0.99;85.91
76762;BME280;65705;51.032;13.790;2023-03-11T04:26:34;98498.53;;;0.92;85.29
76762;BME280;65705;51.032;13.790;2023-03-11T04:29:01;98522.84;;;0.99;86.08
76762;BME280;65705;51.032;13.790;2023-03-11T04:31:30;98523.53;;;1.01;86.22
76762;BME280;65705;51.032;13.790;2023-03-11T04:33:58;98545.94;;;1.01;86.14
76762;BME280;65705;51.032;13.790;2023-03-11T04:36:24;98536.44;;;1.01;86.47
76762;BME280;65705;51.032;13.790;2023-03-11T04:38:50;98567.16;;;1.04;85.71
76762;BME280;65705;51.032;13.790;2023-03-11T04:41:16;98549.91;;;1.05;86.12
76762;BME280;65705;51.032;13.790;2023-03-11T04:43:43;98569.34;;;0.99;85.80
76762;BME280;65705;51.032;13.790;2023-03-11T04:46:09;98577.63;;;1.03;86.18
76762;BME280;65705;51.032;13.790;2023-03-11T04:48:36;98574.38;;;1.01;86.75
76762;BME280;65705;51.032;13.790;2023-03-11T04:51:02;98610.94;;;0.96;85.50
76762;BME280;65705;51.032;13.790;2023-03-11T04:53:28;98572.88;;;0.98;85.50
76762;BME280;65705;51.032;13.790;2023-03-11T04:55:54;98588.50;;;0.97;85.19
76762;BME280;65705;51.032;13.790;2023-03-11T04:58:21;98599.94;;;0.94;84.80
76762;BME280;65705;51.032;13.790;2023-03-11T05:00:47;98592.59;;;0.99;85.25
76762;BME280;65705;51.032;13.790;2023-03-11T05:03:14;98599.66;;;0.97;84.15
76762;BME280;65705;51.032;13.790;2023-03-11T05:05:39;98626.16;;;0.99;84.51
76762;BME280;65705;51.032;13.790;2023-03-11T05:08:06;98640.16;;;0.97;84.80
76762;BME280;65705;51.032;13.790;2023-03-11T05:10:33;98632.69;;;1.03;85.60
76762;BME280;65705;51.032;13.790;2023-03-11T05:13:02;98651.44;;;0.96;84.20
76762;BME280;65705;51.032;13.790;2023-03-11T05:15:32;98654.28;;;1.02;84.13
76762;BME280;65705;51.032;13.790;2023-03-11T05:18:00;98688.00;;;1.01;82.67
76762;BME280;65705;51.032;13.790;2023-03-11T05:20:27;98640.44;;;1.03;83.82
76762;BME280;65705;51.032;13.790;2023-03-11T05:22:53;98659.22;;;1.05;83.19
76762;BME280;65705;51.032;13.790;2023-03-11T05:25:18;98680.28;;;1.11;82.79
76762;BME280;65705;51.032;13.790;2023-03-11T05:27:45;98696.84;;;1.08;81.53
76762;BME280;65705;51.032;13.790;2023-03-11T05:30:12;98705.41;;;0.99;80.81
76762;BME280;65705;51.032;13.790;2023-03-11T05:32:41;98694.00;;;1.01;82.37
76762;BME280;65705;51.032;13.790;2023-03-11T05:35:07;98694.69;;;1.03;80.36
76762;BME280;65705;51.032;13.790;2023-03-11T05:37:34;98708.69;;;1.11;81.67
76762;BME280;65705;51.032;13.790;2023-03-11T05:40:02;98710.06;;;1.15;80.03
76762;BME280;65705;51.032;13.790;2023-03-11T05:42:33;98714.28;;;1.16;81.39
76762;BME280;65705;51.032;13.790;2023-03-11T05:44:59;98714.81;;;1.19;79.29
76762;BME280;65705;51.032;13.790;2023-03-11T05:47:26;98747.88;;;1.25;79.04
76762;BME280;65705;51.032;13.790;2023-03-11T05:49:53;98770.44;;;1.23;78.63
76762;BME280;65705;51.032;13.790;2023-03-11T05:52:20;98757.25;;;1.26;79.22
76762;BME280;65705;51.032;13.790;2023-03-11T05:54:50;98762.97;;;1.30;78.78
76762;BME280;65705;51.032;13.790;2023-03-11T05:57:19;98774.78;;;1.23;77.97
76762;BME280;65705;51.032;13.790;2023-03-11T05:59:45;98765.81;;;1.27;78.55
76762;BME280;65705;51.032;13.790;2023-03-11T06:02:11;98809.63;;;1.28;78.12
76762;BME280;65705;51.032;13.790;2023-03-11T06:04:38;98780.50;;;1.26;77.57
76762;BME280;65705;51.032;13.790;2023-03-11T06:07:04;98787.97;;;1.29;77.33
76762;BME280;65705;51.032;13.790;2023-03-11T06:09:33;98784.06;;;1.25;77.04
76762;BME280;65705;51.032;13.790;2023-03-11T06:12:03;98782.72;;;1.31;77.24
76762;BME280;65705;51.032;13.790;2023-03-11T06:14:41;98799.69;;;1.33;76.89
76762;BME280;65705;51.032;13.790;2023-03-11T06:17:07;98829.91;;;1.33;76.08
76762;BME280;65705;51.032;13.790;2023-03-11T06:19:33;98836.00;;;1.32;76.45
76762;BME280;65705;51.032;13.790;2023-03-11T06:21:59;98793.44;;;1.36;75.54
76762;BME280;65705;51.032;13.790;2023-03-11T06:24:25;98830.31;;;1.38;75.84
76762;BME280;65705;51.032;13.790;2023-03-11T06:26:51;98833.19;;;1.44;76.39
76762;BME280;65705;51.032;13.790;2023-03-11T06:29:18;98842.69;;;1.44;76.26
76762;BME280;65705;51.032;13.790;2023-03-11T06:31:47;98863.38;;;1.44;75.85
76762;BME280;65705;51.032;13.790;2023-03-11T06:34:12;98909.22;;;1.42;75.61
76762;BME280;65705;51.032;13.790;2023-03-11T06:36:38;98875.59;;;1.42;75.88
76762;BME280;65705;51.032;13.790;2023-03-11T06:39:04;98885.84;;;1.43;75.65
76762;BME280;65705;51.032;13.790;2023-03-11T06:41:32;98870.44;;;1.42;75.51
76762;BME280;65705;51.032;13.790;2023-03-11T06:43:59;98907.44;;;1.42;75.23
76762;BME280;65705;51.032;13.790;2023-03-11T06:46:26;98904.22;;;1.50;75.34
76762;BME280;65705;51.032;13.790;2023-03-11T06:48:53;98909.66;;;1.47;75.05
76762;BME280;65705;51.032;13.790;2023-03-11T06:51:21;98916.31;;;1.49;75.15
76762;BME280;65705;51.032;13.790;2023-03-11T06:53:49;98923.69;;;1.54;75.33
76762;BME280;65705;51.032;13.790;2023-03-11T06:56:18;98914.03;;;1.56;75.59
76762;BME280;65705;51.032;13.790;2023-03-11T06:58:48;98937.97;;;1.58;74.83
76762;BME280;65705;51.032;13.790;2023-03-11T07:01:18;98942.34;;;1.57;75.38
76762;BME280;65705;51.032;13.790;2023-03-11T07:03:46;98937.31;;;1.56;75.53
76762;BME280;65705;51.032;13.790;2023-03-11T07:06:20;98943.19;;;1.67;74.69
76762;BME280;65705;51.032;13.790;2023-03-11T07:08:48;98960.16;;;1.60;75.14
76762;BME280;65705;51.032;13.790;2023-03-11T07:11:25;98967.09;;;1.50;74.46
76762;BME280;65705;51.032;13.790;2023-03-11T07:13:55;98966.69;;;1.55;75.85
76762;BME280;65705;51.032;13.790;2023-03-11T07:16:24;98993.91;;;1.59;75.56
76762;BME280;65705;51.032;13.790;2023-03-11T07:18:55;99049.97;;;1.58;74.80
76762;BME280;65705;51.032;13.790;2023-03-11T07:21:23;99008.47;;;1.60;74.43
76762;BME280;65705;51.032;13.790;2023-03-11T07:23:58;99030.63;;;1.53;75.11
76762;BME280;65705;51.032;13.790;2023-03-11T07:26:25;99007.75;;;1.48;74.92
76762;BME280;65705;51.032;13.790;2023-03-11T07:28:53;99044.78;;;1.49;75.54
76762;BME280;65705;51.032;13.790;2023-03-11T07:31:22;99027.59;;;1.48;76.46
76762;BME280;65705;51.032;13.790;2023-03-11T07:33:48;99037.69;;;1.51;76.22
76762;BME280;65705;51.032;13.790;2023-03-11T07:36:16;99012.56;;;1.62;75.65
76762;BME280;65705;51.032;13.790;2023-03-11T07:38:42;99039.94;;;1.65;75.42
76762;BME280;65705;51.032;13.790;2023-03-11T07:41:10;99047.25;;;1.60;75.59
76762;BME280;65705;51.032;13.790;2023-03-11T07:43:36;99050.66;;;1.60;75.59
76762;BME280;65705;51.032;13.790;2023-03-11T07:46:03;99078.28;;;1.60;74.95
76762;BME280;65705;51.032;13.790;2023-03-11T07:48:29;99063.84;;;1.57;75.78
76762;BME280;65705;51.032;13.790;2023-03-11T07:51:03;99068.03;;;1.49;75.70
76762;BME280;65705;51.032;13.790;2023-03-11T07:53:29;99069.47;;;1.42;75.74
76762;BME280;65705;51.032;13.790;2023-03-11T07:55:56;99072.75;;;1.44;76.07
76762;BME280;65705;51.032;13.790;2023-03-11T07:58:23;99081.53;;;1.52;76.49
76762;BME280;65705;51.032;13.790;2023-03-11T08:00:48;99083.91;;;1.65;75.44
76762;BME280;65705;51.032;13.790;2023-03-11T08:03:14;99109.88;;;1.63;75.13
76762;BME280;65705;51.032;13.790;2023-03-11T08:05:40;99108.59;;;1.58;75.14
76762;BME280;65705;51.032;13.790;2023-03-11T08:08:06;99110.75;;;1.53;75.44
76762;BME280;65705;51.032;13.790;2023-03-11T08:10:31;99114.00;;;1.45;74.50
76762;BME280;65705;51.032;13.790;2023-03-11T08:12:57;99110.19;;;1.49;75.49
76762;BME280;65705;51.032;13.790;2023-03-11T08:15:23;99123.38;;;1.46;75.43
76762;BME280;65705;51.032;13.790;2023-03-11T08:17:49;99132.66;;;1.49;75.37
76762;BME280;65705;51.032;13.790;2023-03-11T08:20:14;99134.47;;;1.58;75.38
76762;BME280;65705;51.032;13.790;2023-03-11T08:22:40;99161.59;;;1.63;74.47
76762;BME280;65705;51.032;13.790;2023-03-11T08:25:06;99161.66;;;1.73;74.38
76762;BME280;65705;51.032;13.790;2023-03-11T08:27:32;99149.91;;;1.69;74.21
76762;BME280;65705;51.032;13.790;2023-03-11T08:29:58;99167.63;;;1.94;74.91
76762;BME280;65705;51.032;13.790;2023-03-11T08:32:23;99181.53;;;1.93;73.51
76762;BME280;65705;51.032;13.790;2023-03-11T08:34:49;99175.59;;;1.81;73.91
76762;BME280;65705;51.032;13.790;2023-03-11T08:37:15;99170.75;;;1.88;74.46
76762;BME280;65705;51.032;13.790;2023-03-11T08:39:41;99186.75;;;1.82;73.22
76762;BME280;65705;51.032;13.790;2023-03-11T08:42:08;99195.28;;;1.73;74.10
76762;BME280;65705;51.032;13.790;2023-03-11T08:44:33;99203.59;;;1.76;74.16
76762;BME280;65705;51.032;13.790;2023-03-11T08:46:59;99200.13;;;1.66;75.34
76762;BME280;65705;51.032;13.790;2023-03-11T08:49:25;99210.34;;;1.68;75.98
76762;BME280;65705;51.032;13.790;2023-03-11T08:51:51;99211.34;;;1.76;76.55
76762;BME280;65705;51.032;13.790;2023-03-11T08:54:17;99200.66;;;1.81;75.63
76762;BME280;65705;51.032;13.790;2023-03-11T08:56:42;99206.31;;;1.95;75.45
76762;BME280;65705;51.032;13.790;2023-03-11T08:59:08;99217.91;;;2.01;74.13
76762;BME280;65705;51.032;13.790;2023-03-11T09:01:34;99226.91;;;1.97;73.64
76762;BME280;65705;51.032;13.790;2023-03-11T09:03:59;99227.66;;;1.88;73.69
76762;BME280;65705;51.032;13.790;2023-03-11T09:06:25;99247.25;;;1.90;73.71
76762;BME280;65705;51.032;13.790;2023-03-11T09:08:51;99233.81;;;1.76;74.61
76762;BME280;65705;51.032;13.790;2023-03-11T09:11:17;99235.94;;;1.71;74.22
76762;BME280;65705;51.032;13.790;2023-03-11T09:13:43;99254.75;;;1.73;74.29
76762;BME280;65705;51.032;13.790;2023-03-11T09:16:15;99224.72;;;1.81;75.09
76762;BME280;65705;51.032;13.790;2023-03-11T09:18:41;99245.47;;;1.70;74.91
76762;BME280;65705;51.032;13.790;2023-03-11T09:21:08;99255.06;;;1.79;75.15
76762;BME280;65705;51.032;13.790;2023-03-11T09:23:34;99254.75;;;1.73;75.18
76762;BME280;65705;51.032;13.790;2023-03-11T09:26:00;99278.50;;;1.67;76.08
76762;BME280;65705;51.032;13.790;2023-03-11T09:28:26;99260.94;;;1.61;77.44
76762;BME280;65705;51.032;13.790;2023-03-11T09:30:51;99279.50;;;1.55;76.97
76762;BME280;65705;51.032;13.790;2023-03-11T09:33:17;99285.38;;;1.57;76.94
76762;BME280;65705;51.032;13.790;2023-03-11T09:35:43;99282.22;;;1.53;77.58
76762;BME280;65705;51.032;13.790;2023-03-11T09:38:09;99280.69;;;1.51;77.22
76762;BME280;65705;51.032;13.790;2023-03-11T09:41:02;99279.94;;;1.60;77.18
76762;BME280;65705;51.032;13.790;2023-03-11T09:46:33;99317.31;;;1.67;76.48
76762;BME280;65705;51.032;13.790;2023-03-11T09:51:45;99326.16;;;1.64;77.10
76762;BME280;65705;51.032;13.790;2023-03-11T09:54:14;99313.88;;;1.77;77.83
76762;BME280;65705;51.032;13.790;2023-03-11T09:56:41;99318.31;;;1.86;75.86
76762;BME280;65705;51.032;13.790;2023-03-11T09:59:16;99321.84;;;1.85;75.85
76762;BME280;65705;51.032;13.790;2023-03-11T10:01:47;99321.22;;;1.93;76.28
76762;BME280;65705;51.032;13.790;2023-03-11T10:06:52;99314.88;;;1.97;75.32
76762;BME280;65705;51.032;13.790;2023-03-11T10:09:47;99315.31;;;2.02;75.01
76762;BME280;65705;51.032;13.790;2023-03-11T10:12:20;99327.31;;;1.92;74.38
76762;BME280;65705;51.032;13.790;2023-03-11T10:26:22;99357.75;;;2.31;72.92
76762;BME280;65705;51.032;13.790;2023-03-11T10:29:06;99355.66;;;2.25;72.02
76762;BME280;65705;51.032;13.790;2023-03-11T10:31:53;99351.84;;;2.40;72.26
76762;BME280;65705;51.032;13.790;2023-03-11T10:34:34;99354.84;;;2.45;71.93
76762;BME280;65705;51.032;13.790;2023-03-11T10:37:10;99363.63;;;2.54;71.62
76762;BME280;65705;51.032;13.790;2023-03-11T10:39:39;99366.47;;;2.51;71.45
76762;BME280;65705;51.032;13.790;2023-03-11T10:42:11;99343.00;;;2.73;70.73
76762;BME280;65705;51.032;13.790;2023-03-11T10:44:40;99375.44;;;2.88;70.45
76762;BME280;65705;51.032;13.790;2023-03-11T10:47:14;99370.63;;;2.83;70.83
76762;BME280;65705;51.032;13.790;2023-03-11T10:49:44;99370.09;;;2.89;70.79
76762;BME280;65705;51.032;13.790;2023-03-11T10:52:11;99385.84;;;2.97;69.83
76762;BME280;65705;51.032;13.790;2023-03-11T10:54:40;99389.00;;;2.80;69.26
76762;BME280;65705;51.032;13.790;2023-03-11T10:57:28;99404.69;;;2.79;68.75
76762;BME280;65705;51.032;13.790;2023-03-11T10:59:57;99396.09;;;2.78;67.94
76762;BME280;65705;51.032;13.790;2023-03-11T11:02:32;99387.94;;;2.62;67.80
76762;BME280;65705;51.032;13.790;2023-03-11T11:07:46;99404.56;;;2.80;68.87
76762;BME280;65705;51.032;13.790;2023-03-11T11:12:58;99412.91;;;2.63;69.25
76762;BME280;65705;51.032;13.790;2023-03-11T11:15:36;99428.13;;;2.25;69.56
76762;BME280;65705;51.032;13.790;2023-03-11T11:18:24;99414.91;;;2.39;71.01
76762;BME280;65705;51.032;13.790;2023-03-11T11:21:03;99408.78;;;2.61;72.65
76762;BME280;65705;51.032;13.790;2023-03-11T11:23:47;99425.28;;;2.60;70.12
76762;BME280;65705;51.032;13.790;2023-03-11T11:26:20;99433.66;;;2.21;72.00
76762;BME280;65705;51.032;13.790;2023-03-11T11:31:39;99424.09;;;2.32;72.11
76762;BME280;65705;51.032;13.790;2023-03-11T11:34:30;99419.81;;;2.42;72.09
76762;BME280;65705;51.032;13.790;2023-03-11T11:36:58;99423.31;;;2.73;71.19
76762;BME280;65705;51.032;13.790;2023-03-11T11:39:28;99412.66;;;2.66;70.09
76762;BME280;65705;51.032;13.790;2023-03-11T11:41:55;99434.81;;;2.59;71.32
76762;BME280;65705;51.032;13.790;2023-03-11T11:44:27;99430.56;;;2.58;69.97
76762;BME280;65705;51.032;13.790;2023-03-11T11:47:00;99427.53;;;2.53;70.73
76762;BME280;65705;51.032;13.790;2023-03-11T11:49:30;99452.44;;;2.45;70.32
76762;BME280;65705;51.032;13.790;2023-03-11T11:52:14;99442.69;;;2.69;69.20
76762;BME280;65705;51.032;13.790;2023-03-11T11:54:56;99445.25;;;3.10;69.21
76762;BME280;65705;51.032;13.790;2023-03-11T11:57:26;99437.97;;;3.55;67.83
76762;BME280;65705;51.032;13.790;2023-03-11T11:59:53;99438.66;;;3.66;68.13
76762;BME280;65705;51.032;13.790;2023-03-11T12:10:27;99450.03;;;3.14;65.66
76762;BME280;65705;51.032;13.790;2023-03-11T12:15:32;99451.31;;;3.20;66.40
76762;BME280;65705;51.032;13.790;2023-03-11T12:18:03;99437.84;;;3.26;64.99
76762;BME280;65705;51.032;13.790;2023-03-11T12:20:39;99446.59;;;3.35;64.81
76762;BME280;65705;51.032;13.790;2023-03-11T12:23:22;99433.28;;;3.18;63.66
76762;BME280;65705;51.032;13.790;2023-03-11T12:31:10;99461.38;;;2.72;65.77
76762;BME280;65705;51.032;13.790;2023-03-11T12:33:44;99451.03;;;2.72;66.75
76762;BME280;65705;51.032;13.790;2023-03-11T12:39:02;99456.56;;;2.68;65.90
76762;BME280;65705;51.032;13.790;2023-03-11T12:41:35;99474.38;;;2.61;65.13
76762;BME280;65705;51.032;13.790;2023-03-11T12:44:22;99481.59;;;2.47;64.93
76762;BME280;65705;51.032;13.790;2023-03-11T12:49:31;99474.19;;;2.42;65.24
76762;BME280;65705;51.032;13.790;2023-03-11T12:52:16;99481.16;;;2.42;66.25
76762;BME280;65705;51.032;13.790;2023-03-11T12:54:44;99473.41;;;2.42;67.15
76762;BME280;65705;51.032;13.790;2023-03-11T13:10:22;99501.06;;;2.30;71.18
76762;BME280;65705;51.032;13.790;2023-03-11T13:12:58;99515.03;;;2.39;70.92
76762;BME280;65705;51.032;13.790;2023-03-11T13:15:33;99515.91;;;2.17;71.10
76762;BME280;65705;51.032;13.790;2023-03-11T13:20:43;99520.34;;;2.37;71.44
76762;BME280;65705;51.032;13.790;2023-03-11T13:26:01;99508.75;;;2.63;70.47
76762;BME280;65705;51.032;13.790;2023-03-11T13:34:23;99511.22;;;2.85;69.78
76762;BME280;65705;51.032;13.790;2023-03-11T13:37:25;99525.09;;;2.95;69.50
76762;BME280;65705;51.032;13.790;2023-03-11T13:40:27;99517.28;;;3.06;68.53
76762;BME280;65705;51.032;13.790;2023-03-11T13:43:04;99530.03;;;3.40;73.23
76762;BME280;65705;51.032;13.790;2023-03-11T13:45:36;99523.78;;;3.72;67.84
76762;BME280;65705;51.032;13.790;2023-03-11T13:50:42;99534.88;;;3.54;64.29
76762;BME280;65705;51.032;13.790;2023-03-11T13:53:41;99528.97;;;3.42;66.15
76762;BME280;65705;51.032;13.790;2023-03-11T13:56:26;99540.59;;;3.06;66.36
76762;BME280;65705;51.032;13.790;2023-03-11T13:58:52;99543.09;;;2.97;66.57
76762;BME280;65705;51.032;13.790;2023-03-11T14:01:18;99549.94;;;2.98;66.70
76762;BME280;65705;51.032;13.790;2023-03-11T14:03:46;99545.78;;;3.06;66.43
76762;BME280;65705;51.032;13.790;2023-03-11T14:06:15;99552.41;;;3.20;65.46
76762;BME280;65705;51.032;13.790;2023-03-11T14:08:42;99558.75;;;3.27;65.88
76762;BME280;65705;51.032;13.790;2023-03-11T14:11:16;99556.16;;;3.27;65.06
76762;BME280;65705;51.032;13.790;2023-03-11T14:13:44;99568.41;;;3.04;64.74
76762;BME280;65705;51.032;13.790;2023-03-11T14:19:02;99561.50;;;3.14;63.32
76762;BME280;65705;51.032;13.790;2023-03-11T14:21:28;99574.28;;;3.27;62.32
76762;BME280;65705;51.032;13.790;2023-03-11T14:23:56;99579.41;;;3.17;61.86
76762;BME280;65705;51.032;13.790;2023-03-11T14:26:30;99572.00;;;3.34;61.92
76762;BME280;65705;51.032;13.790;2023-03-11T14:29:14;99572.72;;;3.36;61.95
76762;BME280;65705;51.032;13.790;2023-03-11T14:31:42;99578.03;;;3.34;61.60